KGLSKHOU

Guest
Details From KGLS - Scholes INTL at Galveston
To KHOU - William P Hobby
Flight Number -
Tags generated
Created
Modified
Stats Distance 32 nm / 59 km
Max Altitude 100 ft / 30 m
Waypoints 3
Social Downloads 2
Likes 0
Share VATSIM

Download

Looking for another format? Having issues loading an existing format? Contact us
Advertisement - Login to hide

Notes

Basic altitude profile: - Ascent Rate: 2500ft/min - Ascent Speed: 250kts - Cruise Altitude: 35000ft - Cruise Speed: 420kts - Descent Rate: 1500ft/min - Descent Speed: 250kts Options: - Use NATs: yes - Use PACOTS: yes - Use low airways: yes - Use high airways: yes

Route

KGLS VUH KHOU

ID Type Via Altitude Latitude Longitude Leg Dist Tot Dist Heading (true) Name
O KGLS APT - 0 ft / 0 m 29.26532˚ -94.86041˚ - 0 nm - Scholes INTL at Galveston
VUH VOR - 100 ft / 30 m 29.26933˚ -94.86772˚ 0 nm 0 nm 302° / 302° SCHOLES VORTAC
O KHOU APT - 0 ft / 0 m 29.64553˚ -95.27911˚ 31 nm 31 nm 317° / 316° William P Hobby

Altitude Profile

Advertisement - Login to hide

KGLS

Details ICAO KGLS (GLS)
Name Scholes INTL at Galveston
Region United States
Timezone America/Chicago (UTC-6.0)
Stats Elevation 6 ft / 2 m (AMSL)
Location 29.265321° -94.860412°
Runways 2
Magnetic Variation 2.203° E

METAR

KGLS 102352Z 19003KT 10SM CLR 13/04 A3038 RMK AO2 SLP286 T01330044 10161 20133 58004

Decode

TAF

TAF KGLS 102320Z 1100/1124 23006KT P6SM SCT250 FM111600 23010KT P6SM BKN250

Decode

Departure Runways

ID Width Length Bearing (true) Bearing (mag) Surface Threshold Offset Overrun Length
13 151 ft / 46 m 6,008 ft / 1,831 m 140.26° 138.06° Asphalt 0 ft / 0 m 0 ft / 0 m
17 151 ft / 46 m 6,023 ft / 1,836 m 180.86° 178.66° Concrete 0 ft / 0 m 0 ft / 0 m
31 151 ft / 46 m 6,008 ft / 1,831 m 320.26° 318.06° Asphalt 0 ft / 0 m 0 ft / 0 m
35 151 ft / 46 m 6,023 ft / 1,836 m 0.86° 358.66° Concrete 0 ft / 0 m 0 ft / 0 m

KHOU

Details ICAO KHOU (HOU)
Name William P Hobby
Region United States
Timezone America/Chicago (UTC-6.0)
Stats Elevation 45 ft / 14 m (AMSL)
Location 29.645532° -95.279111°
Runways 4
Magnetic Variation 2.440° E

METAR

KHOU 102353Z 29003KT 10SM SCT250 14/01 A3036 RMK AO2 SLP286 T01390006 10178 20133 56003

Decode

TAF

TAF KHOU 102320Z 1100/1124 25007KT P6SM BKN250= TAF KUTS 102320Z 1100/1124 VRB04KT P6SM SCT250

Decode

Destination Runways

ID Width Length Bearing (true) Bearing (mag) Surface Threshold Offset Overrun Length
04 151 ft / 46 m 7,609 ft / 2,319 m 43.80° 41.36° Concrete 0 ft / 0 m 197 ft / 60 m
12L 98 ft / 30 m 5,152 ft / 1,570 m 134.09° 131.65° Concrete 0 ft / 0 m 148 ft / 45 m
12R 151 ft / 46 m 7,608 ft / 2,319 m 134.10° 131.66° Asphalt 1,033 ft / 315 m 148 ft / 45 m
17 151 ft / 46 m 6,020 ft / 1,835 m 178.95° 176.51° Asphalt 0 ft / 0 m 197 ft / 60 m
22 151 ft / 46 m 7,609 ft / 2,319 m 223.81° 221.37° Concrete 0 ft / 0 m 197 ft / 60 m
30L 151 ft / 46 m 7,608 ft / 2,319 m 314.11° 311.67° Asphalt 0 ft / 0 m 148 ft / 45 m
30R 98 ft / 30 m 5,152 ft / 1,570 m 314.10° 311.66° Concrete 0 ft / 0 m 148 ft / 45 m
35 151 ft / 46 m 6,020 ft / 1,835 m 358.95° 356.51° Asphalt 0 ft / 0 m 197 ft / 60 m

Approach Navaids

Runway Type Ident Frequency Range Bearing (true) Bearing (mag) Slope Elevation
04 Localiser IHUB 109.90 MHz 18 nm / 33 km 43.81° 41.37° - 45 ft / 14 m (AMSL)
04 Glidescope IHUB 109.90 MHz 10 nm / 19 km 43.81° 41.37° 3.00° 46 ft / 14 m (AMSL)
04 DME IHUB 109.90 MHz 18 nm / 33 km - - - 36 ft / 11 m (AMSL)
12R Localiser IPRQ 111.30 MHz 18 nm / 33 km 134.09° 131.65° - 45 ft / 14 m (AMSL)
12R Glidescope IPRQ 111.30 MHz 10 nm / 19 km 134.10° 131.66° 3.00° 47 ft / 14 m (AMSL)
12R DME IPRQ 111.30 MHz 18 nm / 33 km - - - 46 ft / 14 m (AMSL)
22 Localiser IOIB 109.90 MHz 18 nm / 33 km 223.80° 221.36° - 44 ft / 13 m (AMSL)
22 DME IOIB 109.90 MHz 18 nm / 33 km - - - 46 ft / 14 m (AMSL)
30L Localiser IUPU 111.30 MHz 18 nm / 33 km 314.10° 311.66° - 45 ft / 14 m (AMSL)
30L Glidescope IUPU 111.30 MHz 10 nm / 19 km 314.10° 311.66° 3.00° 43 ft / 13 m (AMSL)
30L DME IUPU 111.30 MHz 18 nm / 33 km - - - 46 ft / 14 m (AMSL)

Popular Alternatives